Terminal Aerodrome Forecast
Issued by NWS

Home | Current Version | Previous Version | Graphics & Text | Print | Product List | Glossary On
Versions: 1 2 3 4 5 6 7 8 9 10 11 12 13 14 15 16 17 18 19
163
FTUS43 KABR 161724
TAFPIR
TAF
KPIR 161724Z 1618/1718 35013G20KT P6SM SCT050 OVC100
     FM162000 35015G23KT P6SM BKN100
     FM170300 VRB04KT P6SM SKC=

USA.gov is the U.S. government's official web portal to all federal, state and local government web resources and services.